Willow Springs, California
Current Conditions -  °F | °C
As of 3:56 AM on Friday 28 Nov 2014 (Local Time) from KWJF Reporting Station
Clear Clear  
Wind Chill: 30°   Ceiling: Unl
Heat Index: 30°   Visibility: 10mi
Dew Point: 10°   Wind: 0mph
Humidity: 43%   Direction: NA
Pressure: 30.1"   Gusts: NA
Location:  34.8931°N, 118.353°W
Report Text: KWJF 281156Z 00000KT 10SM CLR M01/M12 A3010 RMK AO2 SLP197 T10111122 10050 21017 58008
Loading
Personal Weather Stations






























Interactive Weather Map New forecast layout! Learn more

10-Day Weather Forecast

Advertisements
Track Severe Weather on mobile